Date,TemperatureHighF,TemperatureAvgF,TemperatureLowF,DewpointHighF,DewpointAvgF,DewpointLowF,HumidityHigh,HumidityAvg,HumidityLow,PressureMaxIn,PressureMinIn,WindSpeedMaxMPH,WindSpeedAvgMPH,GustSpeedMaxMPH,PrecipitationSumIn
2013-10-1,64.0,60.3,53.0,61.0,58.4,52.0,96,93,88,30.01,29.94,0,0,0,0.01
2013-10-2,83.0,67.8,52.0,64.0,59.6,51.0,99,78,51,30.02,29.91,4,1,13,0.01
2013-10-3,78.0,64.8,52.0,64.0,58.2,51.0,99,82,49,30.14,30.02,2,0,6,0.01
2013-10-4,85.0,70.9,58.0,70.0,64.6,57.0,98,82,56,30.08,29.97,2,0,5,0.01
2013-10-5,74.0,68.2,64.0,67.0,64.4,62.0,93,88,75,30.11,30.04,1,0,5,0.00
2013-10-6,67.0,66.1,65.0,66.0,64.9,64.0,98,96,92,30.12,30.06,2,1,9,0.02
2013-10-7,76.0,68.9,58.0,72.0,66.7,56.0,98,93,84,30.04,29.75,6,2,24,0.53
2013-10-8,66.0,56.9,47.0,56.0,49.2,45.0,99,78,48,30.35,29.98,3,1,12,0.04
2013-10-9,63.0,56.4,52.0,52.0,47.5,44.0,90,73,56,30.44,30.32,2,1,10,0.01
2013-10-10,62.0,57.5,53.0,56.0,51.7,47.0,86,81,75,30.32,30.12,3,1,11,0.00
2013-10-11,68.0,63.8,60.0,62.0,58.1,54.0,85,82,77,30.11,30.04,2,1,11,0.00
2013-10-12,74.0,65.1,58.0,59.0,51.7,41.0,85,64,33,30.31,30.10,4,2,11,0.00
2013-10-13,64.0,57.6,52.0,54.0,49.6,-99.9,92,78,65,30.42,30.31,4,2,16,0.00
2013-10-14,66.0,56.2,50.0,53.0,51.0,49.0,97,84,54,30.39,30.26,2,0,7,0.00
2013-10-15,72.0,57.5,46.0,57.0,51.2,45.0,99,82,49,30.28,30.14,2,0,7,0.00
2013-10-16,66.0,57.9,50.0,59.0,54.6,49.0,97,89,78,30.15,29.95,2,0,5,0.00
2013-10-17,75.0,65.6,60.0,64.0,61.4,59.0,97,87,61,29.93,29.69,3,1,9,0.02
2013-10-18,68.0,60.9,46.0,64.0,49.8,43.0,95,70,42,29.99,29.68,4,2,12,0.03
2013-10-19,64.0,52.9,40.0,54.0,47.2,39.0,98,83,48,30.00,29.76,3,0,11,0.01
2013-10-20,63.0,52.2,42.0,55.0,41.5,-99.9,97,73,39,30.07,29.76,5,1,14,0.01
2013-10-21,67.0,52.3,36.0,47.0,41.1,35.0,98,71,33,30.17,30.01,3,1,10,0.01
2013-10-22,66.0,51.7,41.0,53.0,47.0,40.0,98,85,58,30.00,29.75,3,0,9,0.00
2013-10-23,54.0,46.0,37.0,46.0,39.2,36.0,99,79,54,29.83,29.64,2,0,12,0.01
2013-10-24,55.0,44.4,32.0,38.0,32.9,28.0,98,68,38,30.01,29.76,4,1,12,0.01
2013-10-25,53.0,44.4,34.0,36.0,33.5,31.0,92,68,44,30.24,30.01,5,2,20,0.01
2013-10-26,56.0,43.1,29.0,38.0,32.0,28.0,97,69,39,30.23,29.91,5,1,18,0.00
2013-10-27,59.0,47.6,36.0,42.0,34.2,-99.9,95,65,38,30.13,29.86,5,1,20,0.00
2013-10-28,62.0,44.7,29.0,39.0,33.1,-99.9,97,71,37,30.33,30.13,4,1,11,0.00
2013-10-29,53.0,46.3,37.0,37.0,34.2,31.0,92,63,51,30.45,30.35,2,1,7,0.00
2013-10-30,57.0,46.1,36.0,49.0,41.9,34.0,96,86,70,30.37,30.19,2,0,5,0.00
2013-10-31,65.0,53.3,40.0,61.0,50.9,39.0,98,93,78,30.24,29.83,2,0,10,0.02